F/V Deux Freres I — FLST — position and weather

sailwx.info

Track history (hours):
 
Tides and Currents Weather Stations Pressure Air Temp Water Temp Dewpoint Dewpoint Depression Visibility Wind Speed Wind Dir Waves Ship Positions

F/V Deux Freres I

Last reported at 2015-Aug-03 17:33 UTC. Time now 2015-Aug-03 21:20 UTC.
Position N 43°04' E 004°01'.

Length 18 m; draft 3.9 m.

Type: Fishing. MMSI: 228338900.

Date/timePositionNaut miles runAvg speedWind from/ knotsBaromVisibWave heightAir tempDewpointWater temp
2015-Aug-03 17:33N 43°04' E 004°01'6 5.7
2015-Aug-03 16:33N 43°07' E 003°55'5 5.3
2015-Aug-03 15:33N 43°11' E 003°49'3 3.3
2015-Aug-03 14:33N 43°14' E 003°47'8 8.4
2015-Aug-03 13:33N 43°22' E 003°44'20 1.0
2015-Aug-02 18:17N 43°08' E 004°03'2 3.1
2015-Aug-02 17:33N 43°09' E 004°00'5 4.9
2015-Aug-02 16:34N 43°13' E 003°56'5 3.4
2015-Aug-02 15:12N 43°16' E 003°51'1 1.1
2015-Aug-02 14:33N 43°16' E 003°50'15 0.4
2015-Jul-31 19:30N 43°07' E 004°07'1 1.3
2015-Jul-31 18:33N 43°06' E 004°06'3 3.0
2015-Jul-31 17:33N 43°08' E 004°02'5 5.0
2015-Jul-31 16:33N 43°11' E 003°57'4 3.8
2015-Jul-31 15:33N 43°14' E 003°53'5 4.9
2015-Jul-31 14:33N 43°18' E 003°49'  
2015-Jul-28 20:25N 43°16' E 004°06'1 0.4
2015-Jul-28 18:33N 43°16' E 004°07'1 1.1
2015-Jul-28 17:33N 43°16' E 004°05'5 5.0
2015-Jul-28 16:33N 43°19' E 004°00'5 5.0
2015-Jul-28 15:33N 43°22' E 003°55'2 1.7
2015-Jul-28 14:33N 43°23' E 003°53'10 0.3
2015-Jul-26 23:33N 43°13' E 003°56'9 3.1
2015-Jul-26 20:29N 43°08' E 004°07'1 1.4
2015-Jul-26 19:30N 43°08' E 004°09'1 0.9
2015-Jul-26 18:33N 43°08' E 004°08'2 2.1
2015-Jul-26 17:32N 43°09' E 004°05'12 5.3
2015-Jul-26 15:20N 43°17' E 003°53'911.3
2015-Jul-26 14:33N 43°22' E 003°43'2 2.1
2015-Jul-26 13:33N 43°24' E 003°42'0 0.0
2015-Jul-26 12:33N 43°24' E 003°42'0 0.0
2015-Jul-26 11:33N 43°24' E 003°42'0 0.0
2015-Jul-26 10:33N 43°24' E 003°42'0 0.0
2015-Jul-26 05:25N 43°24' E 003°42'  
Track history (hours):
 
Tides and Currents Weather Stations Pressure Air Temp Water Temp Dewpoint Dewpoint Depression Visibility Wind Speed Wind Dir Waves Ship Positions

F/V Deux Freres I

Last reported at 2015-Aug-03 17:33 UTC. Time now 2015-Aug-03 21:20 UTC.
Position N 43°04' E 004°01'.

Length 18 m; draft 3.9 m.

Type: Fishing. MMSI: 228338900.

Date/timePositionNaut miles runAvg speedWind from/ knotsBaromVisibWave heightAir tempDewpointWater temp
2015-Aug-03 17:33N 43°04' E 004°01'6 5.7
2015-Aug-03 16:33N 43°07' E 003°55'5 5.3
2015-Aug-03 15:33N 43°11' E 003°49'3 3.3
2015-Aug-03 14:33N 43°14' E 003°47'8 8.4
2015-Aug-03 13:33N 43°22' E 003°44'20 1.0
2015-Aug-02 18:17N 43°08' E 004°03'2 3.1
2015-Aug-02 17:33N 43°09' E 004°00'5 4.9
2015-Aug-02 16:34N 43°13' E 003°56'5 3.4
2015-Aug-02 15:12N 43°16' E 003°51'1 1.1
2015-Aug-02 14:33N 43°16' E 003°50'15 0.4
2015-Jul-31 19:30N 43°07' E 004°07'1 1.3
2015-Jul-31 18:33N 43°06' E 004°06'3 3.0
2015-Jul-31 17:33N 43°08' E 004°02'5 5.0
2015-Jul-31 16:33N 43°11' E 003°57'4 3.8
2015-Jul-31 15:33N 43°14' E 003°53'5 4.9
2015-Jul-31 14:33N 43°18' E 003°49'  
2015-Jul-28 20:25N 43°16' E 004°06'1 0.4
2015-Jul-28 18:33N 43°16' E 004°07'1 1.1
2015-Jul-28 17:33N 43°16' E 004°05'5 5.0
2015-Jul-28 16:33N 43°19' E 004°00'5 5.0
2015-Jul-28 15:33N 43°22' E 003°55'2 1.7
2015-Jul-28 14:33N 43°23' E 003°53'10 0.3
2015-Jul-26 23:33N 43°13' E 003°56'9 3.1
2015-Jul-26 20:29N 43°08' E 004°07'1 1.4
2015-Jul-26 19:30N 43°08' E 004°09'1 0.9
2015-Jul-26 18:33N 43°08' E 004°08'2 2.1
2015-Jul-26 17:32N 43°09' E 004°05'12 5.3
2015-Jul-26 15:20N 43°17' E 003°53'911.3
2015-Jul-26 14:33N 43°22' E 003°43'2 2.1
2015-Jul-26 13:33N 43°24' E 003°42'0 0.0
2015-Jul-26 12:33N 43°24' E 003°42'0 0.0
2015-Jul-26 11:33N 43°24' E 003°42'0 0.0
2015-Jul-26 10:33N 43°24' E 003°42'0 0.0
2015-Jul-26 05:25N 43°24' E 003°42'  

Dump ship's entire track history